Time;durP1;ratioP1;P1;durP2;ratioP2;P2;SDS_P1;SDS_P2;PMS_P1;PMS_P2;Temp;Humidity;BMP_temperature;BMP_pressure;BME280_temperature;BME280_humidity;BME280_pressure;Samples;Min_cycle;Max_cycle;Signal;HPM_P1;HPM_P2
2021/10/18 00:02:12;;;;;;;11.05;4.28;;;10.10;99.90;;;;;;12430863;28;20053;-84
2021/10/18 00:08:14;;;;;;;9.82;4.30;;;10.10;99.90;;;;;;12419521;28;20493;-84
2021/10/18 00:14:16;;;;;;;9.07;4.18;;;10.20;99.90;;;;;;12421847;28;20269;-84
2021/10/18 00:20:18;;;;;;;13.38;4.35;;;10.10;99.90;;;;;;12422815;28;20053;-85
2021/10/18 00:26:20;;;;;;;8.70;4.15;;;10.10;99.90;;;;;;12445144;28;20106;-86
2021/10/18 00:32:22;;;;;;;11.23;4.68;;;10.10;99.90;;;;;;12446436;28;20081;-84
2021/10/18 00:38:24;;;;;;;6.88;4.32;;;10.10;99.90;;;;;;12424477;28;20045;-86
2021/10/18 00:44:26;;;;;;;9.82;4.55;;;10.00;99.90;;;;;;12421651;28;20095;-85
2021/10/18 00:50:28;;;;;;;9.13;4.57;;;9.90;99.90;;;;;;12430941;28;20045;-86
2021/10/18 00:56:32;;;;;;;9.05;4.10;;;9.90;99.90;;;;;;12437369;28;20077;-85
2021/10/18 01:02:34;;;;;;;8.70;4.53;;;10.00;99.90;;;;;;12420227;28;20498;-85
2021/10/18 01:08:37;;;;;;;7.53;4.32;;;9.90;99.90;;;;;;12424583;28;20640;-85
2021/10/18 01:14:40;;;;;;;12.65;5.03;;;9.90;99.90;;;;;;12424117;28;20045;-85
2021/10/18 01:20:42;;;;;;;9.25;4.53;;;9.90;99.90;;;;;;12433825;28;20132;-85
2021/10/18 01:26:44;;;;;;;11.18;4.05;;;9.90;99.90;;;;;;12414749;28;20107;-85
2021/10/18 01:32:46;;;;;;;8.75;4.20;;;9.90;99.90;;;;;;12418487;28;20497;-86
2021/10/18 01:38:48;;;;;;;11.20;4.20;;;9.90;99.90;;;;;;12420056;28;20085;-85
2021/10/18 01:44:51;;;;;;;10.90;4.10;;;10.00;99.90;;;;;;12420193;28;20049;-83
2021/10/18 01:50:52;;;;;;;11.68;4.25;;;10.00;99.90;;;;;;12406854;28;20132;-84
2021/10/18 01:56:54;;;;;;;8.82;3.90;;;9.90;99.90;;;;;;12412388;28;20523;-86
2021/10/18 02:02:56;;;;;;;8.07;3.78;;;10.10;99.90;;;;;;12425098;28;20543;-85
2021/10/18 02:08:58;;;;;;;5.80;3.25;;;10.00;99.90;;;;;;12434018;28;20465;-86
2021/10/18 02:15:00;;;;;;;7.80;3.33;;;10.10;99.90;;;;;;12414908;28;20053;-84
2021/10/18 02:21:02;;;;;;;6.93;3.13;;;10.00;99.90;;;;;;12417630;28;20049;-86
2021/10/18 02:27:04;;;;;;;6.70;3.55;;;10.00;99.90;;;;;;12427929;28;20053;-86
2021/10/18 02:33:06;;;;;;;6.90;3.22;;;9.90;99.90;;;;;;12421819;28;20049;-85
2021/10/18 02:39:08;;;;;;;5.85;3.05;;;9.90;99.90;;;;;;12423481;28;20045;-84
2021/10/18 02:45:11;;;;;;;7.93;3.67;;;9.90;99.90;;;;;;12414362;28;20077;-86
2021/10/18 02:51:13;;;;;;;8.10;3.60;;;9.90;99.90;;;;;;12420004;28;20084;-84
2021/10/18 02:57:14;;;;;;;7.40;3.17;;;9.80;99.90;;;;;;12418664;28;20057;-86
2021/10/18 03:03:16;;;;;;;8.50;3.13;;;9.90;99.90;;;;;;12448242;28;20494;-84
2021/10/18 03:09:18;;;;;;;6.13;3.45;;;9.90;99.90;;;;;;12446354;28;20057;-86
2021/10/18 03:15:20;;;;;;;6.75;3.30;;;9.90;99.90;;;;;;12446268;28;20513;-84
2021/10/18 03:21:22;;;;;;;7.03;3.13;;;9.90;99.90;;;;;;12430220;28;20164;-86
2021/10/18 03:27:24;;;;;;;6.40;3.05;;;9.80;99.90;;;;;;12450073;28;20129;-84
2021/10/18 03:33:36;;;;;;;6.50;3.00;;;9.80;99.90;;;;;;12420662;28;20460;-85
2021/10/18 03:39:38;;;;;;;5.30;2.83;;;9.70;99.90;;;;;;12446115;28;20133;-84
2021/10/18 03:45:40;;;;;;;5.85;2.97;;;9.70;99.90;;;;;;12449867;28;20045;-85
2021/10/18 03:51:42;;;;;;;6.38;2.97;;;9.60;99.90;;;;;;12447855;28;20052;-83
2021/10/18 03:57:44;;;;;;;6.95;2.80;;;9.60;99.90;;;;;;12433242;28;20130;-85
2021/10/18 04:03:46;;;;;;;9.15;2.85;;;9.50;99.90;;;;;;12447349;28;20425;-83
2021/10/18 04:09:48;;;;;;;5.97;3.20;;;9.50;99.90;;;;;;12442596;28;20099;-85
2021/10/18 04:15:50;;;;;;;8.70;3.42;;;9.50;99.90;;;;;;12450966;28;20053;-85
2021/10/18 04:21:52;;;;;;;6.57;2.90;;;9.40;99.90;;;;;;12423860;28;20061;-86
2021/10/18 04:27:53;;;;;;;5.18;2.90;;;9.40;99.90;;;;;;12430692;28;20058;-84
2021/10/18 04:34:00;;;;;;;5.25;2.80;;;9.40;99.90;;;;;;12421137;28;20055;-85
2021/10/18 04:40:03;;;;;;;7.65;2.97;;;9.30;99.90;;;;;;12426933;28;20565;-86
2021/10/18 04:46:06;;;;;;;5.75;2.80;;;9.40;99.90;;;;;;12417792;28;20727;-84
2021/10/18 04:52:08;;;;;;;6.43;2.72;;;9.40;99.90;;;;;;12429537;28;20693;-86
2021/10/18 04:58:10;;;;;;;5.32;2.78;;;9.40;99.90;;;;;;12431578;28;20049;-84
2021/10/18 05:04:12;;;;;;;9.77;3.65;;;9.40;99.90;;;;;;12428539;28;20049;-84
2021/10/18 05:10:14;;;;;;;5.13;3.00;;;9.50;99.90;;;;;;12428671;28;20045;-84
2021/10/18 05:16:16;;;;;;;6.32;3.35;;;9.40;99.90;;;;;;12430949;28;20128;-85
2021/10/18 05:22:19;;;;;;;9.50;2.83;;;9.40;99.90;;;;;;12426495;28;20053;-85
2021/10/18 05:28:20;;;;;;;5.63;2.60;;;9.40;99.90;;;;;;12428874;28;20068;-85
2021/10/18 05:34:23;;;;;;;6.18;2.60;;;9.40;99.90;;;;;;12444163;28;20569;-85
2021/10/18 05:40:26;;;;;;;6.47;2.30;;;9.50;99.90;;;;;;12432604;28;20057;-85
2021/10/18 05:46:27;;;;;;;7.60;2.53;;;9.60;99.90;;;;;;12427438;28;20140;-84
2021/10/18 05:52:29;;;;;;;4.30;2.25;;;9.60;99.90;;;;;;12450987;28;20068;-84
2021/10/18 05:58:31;;;;;;;9.55;2.88;;;9.60;99.90;;;;;;12425011;28;20500;-84
2021/10/18 06:04:36;;;;;;;6.10;2.50;;;9.50;99.90;;;;;;12430680;28;20433;-85
2021/10/18 06:10:38;;;;;;;5.05;2.40;;;9.40;99.90;;;;;;12428118;28;20057;-84
2021/10/18 06:16:40;;;;;;;5.72;2.35;;;9.50;99.90;;;;;;12425046;28;20049;-83
2021/10/18 06:22:42;;;;;;;5.25;2.42;;;9.50;99.90;;;;;;12425433;28;20164;-83
2021/10/18 06:28:44;;;;;;;4.25;2.65;;;9.50;99.90;;;;;;12416746;28;20482;-83
2021/10/18 06:34:46;;;;;;;7.47;2.55;;;9.60;99.90;;;;;;12416291;28;20426;-83
2021/10/18 06:40:48;;;;;;;6.13;2.67;;;9.70;99.90;;;;;;12425443;28;20152;-83
2021/10/18 06:46:51;;;;;;;4.90;2.40;;;9.70;99.90;;;;;;12419405;28;20062;-85
2021/10/18 06:52:53;;;;;;;6.63;2.60;;;9.80;99.90;;;;;;12420778;28;20100;-84
2021/10/18 06:58:55;;;;;;;5.68;2.50;;;9.80;99.90;;;;;;12422353;28;20057;-83
2021/10/18 07:04:57;;;;;;;8.25;2.90;;;9.90;99.90;;;;;;12425213;28;20536;-84
2021/10/18 07:10:59;;;;;;;6.82;3.08;;;9.90;99.90;;;;;;12447980;28;20045;-82
2021/10/18 07:17:01;;;;;;;7.18;2.70;;;10.00;99.90;;;;;;12433117;28;20054;-86
2021/10/18 07:23:08;;;;;;;4.85;2.50;;;10.10;99.90;;;;;;12432435;28;20046;-83
2021/10/18 07:29:10;;;;;;;4.50;2.72;;;10.20;99.90;;;;;;12432771;28;20149;-86
2021/10/18 07:35:14;;;;;;;5.18;2.40;;;10.30;99.90;;;;;;12444971;28;20045;-84
2021/10/18 07:41:17;;;;;;;6.65;2.60;;;10.40;99.90;;;;;;12430897;28;20045;-85
2021/10/18 07:47:19;;;;;;;5.78;2.78;;;10.50;99.90;;;;;;12430668;28;21209;-84
2021/10/18 07:53:22;;;;;;;6.32;2.53;;;10.60;99.90;;;;;;12443346;28;20584;-85
2021/10/18 07:59:23;;;;;;;7.38;2.80;;;10.60;99.90;;;;;;12432529;28;20513;-83
2021/10/18 08:05:26;;;;;;;4.35;2.72;;;10.60;99.90;;;;;;12451171;28;20073;-85
2021/10/18 08:11:28;;;;;;;5.57;2.88;;;10.60;99.90;;;;;;12431407;28;20164;-85
2021/10/18 08:17:30;;;;;;;5.32;2.83;;;10.60;99.90;;;;;;12450846;28;20052;-85
2021/10/18 08:23:32;;;;;;;5.10;2.95;;;10.70;99.90;;;;;;12454244;28;20049;-84
2021/10/18 08:29:34;;;;;;;6.97;2.70;;;10.80;99.90;;;;;;12437915;28;20049;-85
2021/10/18 08:35:36;;;;;;;6.43;3.33;;;10.90;99.90;;;;;;12427725;28;20525;-84
2021/10/18 08:41:41;;;;;;;6.65;2.80;;;11.00;99.90;;;;;;12430446;28;20064;-84
2021/10/18 08:47:44;;;;;;;11.35;3.25;;;11.10;99.90;;;;;;12404125;28;20057;-85
2021/10/18 08:53:46;;;;;;;5.85;3.00;;;11.10;99.90;;;;;;12433673;28;20493;-86
2021/10/18 08:59:48;;;;;;;9.63;3.25;;;11.40;99.90;;;;;;12425288;28;20505;-86
2021/10/18 09:06:07;;;;;;;5.53;3.30;;;11.40;99.90;;;;;;12422865;28;20045;-85
2021/10/18 09:12:28;;;;;;;5.25;3.10;;;11.50;99.90;;;;;;12444569;28;20045;-86
2021/10/18 09:18:35;;;;;;;5.63;3.08;;;11.70;99.90;;;;;;12448885;28;20168;-84
2021/10/18 09:24:41;;;;;;;;;;;11.80;99.90;;;;;;12419311;28;20121;-84
2021/10/18 09:30:47;;;;;;;7.97;3.57;;;12.00;99.90;;;;;;12427308;28;19929;-85
2021/10/18 09:36:49;;;;;;;7.47;3.38;;;12.10;99.90;;;;;;12448424;28;20049;-83
2021/10/18 09:43:18;;;;;;;7.60;3.67;;;12.20;99.90;;;;;;12430881;28;20686;-85
2021/10/18 10:54:49;;;;;;;8.25;3.38;;;13.90;99.90;;;;;;12309815;28;20107;-86
2021/10/18 11:00:51;;;;;;;9.27;3.00;;;13.80;99.90;;;;;;12466878;28;20043;-84
2021/10/18 11:06:53;;;;;;;5.60;2.70;;;13.80;99.90;;;;;;12436267;28;20556;-85
2021/10/18 11:13:05;;;;;;;7.43;2.50;;;13.90;99.90;;;;;;12428743;28;20391;-85
2021/10/18 11:19:07;;;;;;;5.30;2.55;;;14.10;99.90;;;;;;12445572;28;20073;-84
2021/10/18 11:25:24;;;;;;;5.70;2.90;;;14.30;99.90;;;;;;12452067;28;20091;-86
2021/10/18 11:31:28;;;;;;;7.88;2.58;;;14.30;99.90;;;;;;12426071;28;20054;-84
2021/10/18 11:37:53;;;;;;;5.75;2.58;;;14.40;99.90;;;;;;12433292;28;20057;-84
2021/10/18 11:43:54;;;;;;;6.07;2.65;;;14.30;99.90;;;;;;12432451;28;20053;-84
2021/10/18 11:50:11;;;;;;;8.68;2.90;;;14.20;99.90;;;;;;12421888;28;20050;-84
2021/10/18 11:56:18;;;;;;;7.25;3.53;;;14.20;99.90;;;;;;12430599;28;20101;-84
2021/10/18 12:02:22;;;;;;;6.80;2.97;;;14.00;99.90;;;;;;12428183;28;20045;-85
2021/10/18 12:08:29;;;;;;;5.85;3.05;;;14.00;99.90;;;;;;12426043;28;20046;-85
2021/10/18 12:14:31;;;;;;;6.63;3.33;;;14.00;99.90;;;;;;12449235;28;20056;-86
2021/10/18 12:20:33;;;;;;;6.43;3.20;;;14.30;99.90;;;;;;12427458;28;20076;-85
2021/10/18 12:26:42;;;;;;;7.38;3.58;;;14.40;99.90;;;;;;12430963;28;20053;-84
2021/10/18 12:32:44;;;;;;;6.93;3.60;;;14.40;99.90;;;;;;12422345;28;20104;-84
2021/10/18 12:38:46;;;;;;;6.13;3.55;;;14.50;99.90;;;;;;12423876;28;20060;-85
2021/10/18 12:45:09;;;;;;;6.53;4.00;;;14.40;99.90;;;;;;12429489;28;20049;-85
2021/10/18 12:51:11;;;;;;;7.88;4.00;;;14.30;99.90;;;;;;12422645;28;20460;-83
2021/10/18 12:57:14;;;;;;;6.97;3.80;;;14.40;99.90;;;;;;12446076;28;20833;-85
2021/10/18 13:03:21;;;;;;;5.43;3.50;;;14.50;99.90;;;;;;12427776;28;20045;-85
2021/10/18 13:09:23;;;;;;;9.02;3.88;;;14.50;99.90;;;;;;12444098;28;20843;-85
2021/10/18 13:15:26;;;;;;;8.10;3.83;;;14.50;99.90;;;;;;12428443;28;20136;-85
2021/10/18 13:21:30;;;;;;;10.77;3.78;;;14.50;99.90;;;;;;12427681;28;20095;-85
2021/10/18 13:27:32;;;;;;;8.48;3.25;;;14.60;99.90;;;;;;12421595;28;20449;-86
2021/10/18 13:33:34;;;;;;;10.25;3.42;;;14.60;99.90;;;;;;12449002;28;20049;-85
2021/10/18 13:39:37;;;;;;;9.02;3.60;;;14.60;99.90;;;;;;12432646;28;20059;-85
2021/10/18 13:45:39;;;;;;;5.20;3.28;;;14.60;99.90;;;;;;12444119;28;20584;-84
2021/10/18 13:51:42;;;;;;;7.00;3.67;;;14.50;99.90;;;;;;12422834;28;20511;-85
2021/10/18 13:57:44;;;;;;;7.43;3.25;;;14.50;99.90;;;;;;12428410;28;20057;-85
2021/10/18 14:03:46;;;;;;;7.57;3.33;;;14.50;99.90;;;;;;12423675;28;20168;-85
2021/10/18 14:09:48;;;;;;;7.03;3.13;;;14.40;99.90;;;;;;12446103;28;20059;-84
2021/10/18 14:15:50;;;;;;;8.48;2.97;;;14.40;99.90;;;;;;12432478;28;20053;-85
2021/10/18 14:21:52;;;;;;;7.35;2.88;;;14.30;99.90;;;;;;12440898;28;20497;-85
2021/10/18 14:27:54;;;;;;;9.20;3.58;;;14.30;99.90;;;;;;12454456;28;20051;-83
2021/10/18 14:33:56;;;;;;;7.88;3.15;;;14.40;99.90;;;;;;12439343;28;20629;-85
2021/10/18 14:39:57;;;;;;;5.90;3.30;;;14.30;99.90;;;;;;12439307;28;20119;-84
2021/10/18 14:45:59;;;;;;;6.65;3.03;;;14.20;99.90;;;;;;12445381;28;20057;-85
2021/10/18 14:52:01;;;;;;;6.47;3.10;;;14.10;99.90;;;;;;12446381;28;20069;-84
2021/10/18 14:58:03;;;;;;;6.97;3.35;;;13.90;99.90;;;;;;12453961;28;20049;-85
2021/10/18 15:04:06;;;;;;;10.20;3.70;;;13.90;99.90;;;;;;12444312;28;20428;-86
2021/10/18 15:10:08;;;;;;;6.45;2.95;;;13.70;99.90;;;;;;12450160;28;20614;-85
2021/10/18 15:16:10;;;;;;;4.93;3.40;;;13.60;99.90;;;;;;12460690;28;20906;-85
2021/10/18 15:22:17;;;;;;;7.22;3.47;;;13.50;99.90;;;;;;12438718;28;20045;-86
2021/10/18 15:28:19;;;;;;;11.48;4.32;;;13.40;99.90;;;;;;12431865;28;20437;-84
2021/10/18 15:34:22;;;;;;;6.95;4.18;;;13.30;99.90;;;;;;12430367;28;20159;-85
2021/10/18 15:40:24;;;;;;;8.82;4.20;;;13.20;99.90;;;;;;12437360;28;20059;-85
2021/10/18 15:46:25;;;;;;;8.93;4.25;;;13.10;99.90;;;;;;12431760;28;20061;-85
2021/10/18 15:52:27;;;;;;;13.52;5.30;;;13.00;99.90;;;;;;12428735;28;20049;-84
2021/10/18 15:58:30;;;;;;;8.48;4.80;;;12.80;99.90;;;;;;12433984;28;20087;-85
2021/10/18 16:04:32;;;;;;;10.80;5.10;;;12.80;99.90;;;;;;12432560;28;20166;-85
2021/10/18 16:10:34;;;;;;;11.32;4.80;;;12.70;99.90;;;;;;12438172;28;20055;-85
2021/10/18 16:16:38;;;;;;;8.55;4.70;;;12.60;99.90;;;;;;12427814;28;20065;-85
2021/10/18 16:22:42;;;;;;;12.35;5.72;;;12.60;99.90;;;;;;12459113;28;20049;-84
2021/10/18 16:28:44;;;;;;;8.68;5.60;;;12.40;99.90;;;;;;12434024;28;20148;-85
2021/10/18 16:34:50;;;;;;;9.35;5.72;;;12.40;99.90;;;;;;12428300;28;20195;-84
2021/10/18 16:40:52;;;;;;;8.60;5.70;;;12.40;99.90;;;;;;12429711;28;20524;-85
2021/10/18 16:46:54;;;;;;;9.10;6.07;;;12.30;99.90;;;;;;12450623;28;20139;-84
2021/10/18 16:52:56;;;;;;;10.32;6.85;;;12.30;99.90;;;;;;12433329;28;20049;-86
2021/10/18 16:58:58;;;;;;;10.73;6.97;;;12.30;99.90;;;;;;12423005;28;20088;-84
2021/10/18 17:05:00;;;;;;;9.95;6.88;;;12.20;99.90;;;;;;12433498;28;20045;-84
2021/10/18 17:11:02;;;;;;;11.70;7.47;;;12.10;99.90;;;;;;12447235;28;20051;-84
2021/10/18 17:17:04;;;;;;;14.23;8.20;;;12.10;99.90;;;;;;12451273;28;20176;-86
2021/10/18 17:23:06;;;;;;;14.90;7.43;;;12.10;99.90;;;;;;12422323;28;20434;-85
2021/10/18 17:29:08;;;;;;;11.07;7.55;;;12.10;99.90;;;;;;12439267;28;20068;-85
2021/10/18 17:35:10;;;;;;;12.60;8.07;;;12.00;99.90;;;;;;12453140;28;20053;-85
2021/10/18 17:41:12;;;;;;;11.45;8.32;;;12.00;99.90;;;;;;12448934;28;20794;-86
2021/10/18 17:47:13;;;;;;;15.23;8.70;;;11.90;99.90;;;;;;12446422;28;20612;-85
2021/10/18 17:53:15;;;;;;;14.80;9.05;;;11.80;99.90;;;;;;12427899;28;21063;-85
2021/10/18 17:59:17;;;;;;;14.57;8.20;;;11.90;99.90;;;;;;12430641;28;20148;-84
2021/10/18 18:05:22;;;;;;;14.93;9.48;;;11.80;99.90;;;;;;12432576;28;20096;-84
2021/10/18 18:11:24;;;;;;;14.68;8.63;;;11.70;99.90;;;;;;12430674;28;20559;-85
2021/10/18 18:17:26;;;;;;;14.50;8.93;;;11.60;99.90;;;;;;12432306;28;20053;-84
2021/10/18 18:23:28;;;;;;;17.13;9.05;;;11.60;99.90;;;;;;12447395;28;20479;-85
2021/10/18 18:29:30;;;;;;;14.95;9.80;;;11.70;99.90;;;;;;12447769;28;20143;-85
2021/10/18 18:35:31;;;;;;;15.15;9.52;;;11.70;99.90;;;;;;12446619;28;20053;-84
2021/10/18 18:41:34;;;;;;;16.98;9.88;;;11.60;99.90;;;;;;12450204;28;20475;-84
2021/10/18 18:47:37;;;;;;;13.63;9.00;;;11.50;99.90;;;;;;12430444;28;20448;-85
2021/10/18 18:53:39;;;;;;;15.23;10.05;;;11.50;99.90;;;;;;12423492;28;20305;-83
2021/10/18 18:59:42;;;;;;;16.58;10.68;;;11.50;99.90;;;;;;12447529;28;20390;-84
2021/10/18 19:05:44;;;;;;;16.88;9.57;;;11.40;99.90;;;;;;12436698;28;20482;-86
2021/10/18 19:11:46;;;;;;;19.25;10.52;;;11.30;99.90;;;;;;12451345;28;20597;-85
2021/10/18 19:17:48;;;;;;;18.08;10.70;;;11.40;99.90;;;;;;12443689;28;20144;-86
2021/10/18 19:23:50;;;;;;;17.80;10.32;;;11.20;99.90;;;;;;12443924;28;20041;-84
2021/10/18 19:29:52;;;;;;;16.63;9.95;;;11.20;99.90;;;;;;12434194;28;20054;-84
2021/10/18 19:35:55;;;;;;;18.13;11.30;;;11.10;99.90;;;;;;12434702;28;20053;-86
2021/10/18 19:41:57;;;;;;;17.10;10.83;;;11.00;99.90;;;;;;12450283;28;20376;-86
2021/10/18 19:47:59;;;;;;;19.85;11.20;;;11.10;99.90;;;;;;12458933;28;20050;-85
2021/10/18 19:54:01;;;;;;;18.02;11.68;;;11.10;99.90;;;;;;12434962;28;20115;-83
2021/10/18 20:00:03;;;;;;;21.00;12.20;;;11.10;99.90;;;;;;12438523;28;20049;-83
2021/10/18 20:06:09;;;;;;;19.67;12.57;;;11.00;99.90;;;;;;12432577;28;20806;-85
2021/10/18 20:12:12;;;;;;;19.80;12.80;;;10.90;99.90;;;;;;12430151;28;20053;-84
2021/10/18 20:18:15;;;;;;;21.50;12.98;;;10.80;99.90;;;;;;12454738;28;20053;-84
2021/10/18 20:24:17;;;;;;;22.30;14.23;;;10.80;99.90;;;;;;12438242;28;20099;-86
2021/10/18 20:30:20;;;;;;;25.02;15.85;;;10.80;99.90;;;;;;12436653;28;20444;-85
2021/10/18 20:36:22;;;;;;;26.08;15.85;;;10.80;99.90;;;;;;12453556;28;20111;-85
2021/10/18 20:42:24;;;;;;;27.13;15.98;;;10.60;99.90;;;;;;12434604;28;20140;-83
2021/10/18 20:48:26;;;;;;;27.88;16.65;;;10.50;99.90;;;;;;12456132;28;20049;-82
2021/10/18 20:54:27;;;;;;;28.90;17.50;;;10.50;99.90;;;;;;12425293;28;20076;-83
2021/10/18 21:00:45;;;;;;;29.33;17.63;;;10.50;99.90;;;;;;12453277;28;20132;-84
2021/10/18 21:06:47;;;;;;;29.75;18.08;;;10.40;99.90;;;;;;12439925;28;20042;-85
2021/10/18 21:12:49;;;;;;;28.77;16.90;;;10.40;99.90;;;;;;12446982;28;20057;-84
2021/10/18 21:18:51;;;;;;;29.52;16.98;;;10.40;99.90;;;;;;12460156;28;21150;-84
2021/10/18 21:24:54;;;;;;;28.15;17.95;;;10.40;99.90;;;;;;12436046;28;20102;-85
2021/10/18 21:30:56;;;;;;;28.85;17.15;;;10.40;99.90;;;;;;12434066;28;20102;-84
2021/10/18 21:36:58;;;;;;;30.50;17.55;;;10.30;99.90;;;;;;12458643;28;20497;-85
2021/10/18 21:43:13;;;;;;;32.85;19.00;;;10.40;99.90;;;;;;12435855;28;20096;-85
2021/10/18 21:49:33;;;;;;;29.17;18.00;;;10.40;99.90;;;;;;12433642;28;20251;-83
2021/10/18 21:55:35;;;;;;;34.10;18.83;;;10.30;99.90;;;;;;12446490;28;20453;-85
2021/10/18 22:01:36;;;;;;;29.23;17.90;;;10.30;99.90;;;;;;12430394;28;20049;-84
2021/10/18 22:07:38;;;;;;;27.38;16.63;;;10.40;99.90;;;;;;12426397;28;20053;-84
2021/10/18 22:13:40;;;;;;;25.50;16.15;;;10.40;99.90;;;;;;12429086;28;20111;-86
2021/10/18 22:19:43;;;;;;;22.75;15.18;;;10.50;99.90;;;;;;12436776;28;20053;-84
2021/10/18 22:25:45;;;;;;;26.77;15.82;;;10.60;99.90;;;;;;12434628;28;20561;-85
2021/10/18 22:31:47;;;;;;;25.08;15.90;;;10.60;99.90;;;;;;12446124;28;20103;-85
2021/10/18 22:37:50;;;;;;;27.35;16.85;;;10.60;99.90;;;;;;12454596;28;20049;-85
2021/10/18 22:43:51;;;;;;;25.25;15.48;;;10.70;99.90;;;;;;12440881;28;20433;-85
2021/10/18 22:49:53;;;;;;;23.38;14.60;;;10.70;99.90;;;;;;12443647;28;20156;-85
2021/10/18 22:55:55;;;;;;;27.55;15.88;;;10.70;99.90;;;;;;12439570;28;20045;-85
2021/10/18 23:01:57;;;;;;;25.98;15.68;;;10.70;99.90;;;;;;12441298;28;20049;-85
2021/10/18 23:07:59;;;;;;;25.10;14.90;;;10.70;99.90;;;;;;12455639;28;20045;-86
2021/10/18 23:14:01;;;;;;;22.52;15.20;;;10.60;99.90;;;;;;12438804;28;20057;-84
2021/10/18 23:20:04;;;;;;;22.00;14.73;;;10.60;99.90;;;;;;12439052;28;20189;-84
2021/10/18 23:26:06;;;;;;;25.90;15.50;;;10.70;99.90;;;;;;12456089;28;20050;-84
2021/10/18 23:32:08;;;;;;;32.42;14.82;;;10.70;99.90;;;;;;12440462;28;20091;-84
2021/10/18 23:38:10;;;;;;;21.55;14.65;;;10.60;99.90;;;;;;12460164;28;20439;-86
2021/10/18 23:44:12;;;;;;;22.67;14.80;;;10.60;99.90;;;;;;12437229;28;20049;-84
2021/10/18 23:50:13;;;;;;;20.50;13.18;;;10.70;99.90;;;;;;12443315;28;20049;-83
2021/10/18 23:56:15;;;;;;;19.52;13.35;;;11.00;99.90;;;;;;12458557;28;20053;-85
